www.bettendroffer.lu
Wetterdaten: Woche 03.01.11 - 09.01.11 (KW1)
Datum Zeit Temp. 1 ext. Temp. 3 Feuchte 1 Feuchte 3 Luftdruck Regen Wind Richtung Taupunkt Windchill
03.01.2011 00:00 -2,9 C -3,1 C 57 % 68 % 1018 hPa 0,0 l/m 0,0 km/h (0 Bft) - - -10,2 C -2,9 C
03.01.2011 01:00 -4,3 C -4,8 C 57 % 67 % 1018 hPa 0,0 l/m 0,0 km/h (0 Bft) - - -11,5 C -4,3 C
03.01.2011 02:00 -4,7 C -5,1 C 60 % 68 % 1018 hPa 0,0 l/m 0,0 km/h (0 Bft) - - -11,4 C -4,7 C
03.01.2011 03:00 -5,1 C -5,5 C 62 % 69 % 1018 hPa 0,0 l/m 0,0 km/h (0 Bft) - - -11,3 C -5,1 C
03.01.2011 04:00 -5,7 C -6,1 C 64 % 70 % 1018 hPa 0,0 l/m 0,0 km/h (0 Bft) - - -11,4 C -5,7 C
03.01.2011 05:00 -5,2 C -5,4 C 68 % 71 % 1018 hPa 0,0 l/m 0,0 km/h (0 Bft) - - -10,3 C -5,2 C
03.01.2011 06:00 -4,7 C -5,0 C 68 % 72 % 1018 hPa 0,0 l/m 0,0 km/h (0 Bft) - - -9,7 C -4,7 C
03.01.2011 07:00 -4,4 C -4,9 C 68 % 72 % 1018 hPa 0,0 l/m 0,0 km/h (0 Bft) - - -9,5 C -4,4 C
03.01.2011 08:00 -5,0 C -5,3 C 66 % 71 % 1018 hPa 0,0 l/m 0,0 km/h (0 Bft) - - -10,4 C -5,0 C
03.01.2011 09:00 -4,0 C -4,2 C 69 % 73 % 1018 hPa 0,0 l/m 0,0 km/h (0 Bft) - - -8,9 C -4,0 C
03.01.2011 10:00 -2,5 C -2,9 C 67 % 74 % 1018 hPa 0,0 l/m 0,0 km/h (0 Bft) - - -7,9 C -2,5 C
03.01.2011 11:00 -1,2 C -1,1 C 58 % 73 % 1018 hPa 0,0 l/m 0,0 km/h (0 Bft) - - -8,4 C -1,2 C
03.01.2011 12:00 -0,0 C -0,2 C 53 % 67 % 1018 hPa 0,0 l/m 0,0 km/h (0 Bft) - - -8,6 C -0,0 C
03.01.2011 13:00 0,9 C 0,9 C 47 % 63 % 1017 hPa 0,4 l/m 0,0 km/h (0 Bft) - - -9,1 C 0,9 C
03.01.2011 14:00 1,3 C 1,3 C 44 % 59 % 1017 hPa 0,0 l/m 0,0 km/h (0 Bft) - - -9,6 C 1,3 C
03.01.2011 15:00 0,9 C 0,8 C 46 % 58 % 1017 hPa 0,0 l/m 0,0 km/h (0 Bft) - - -9,5 C 0,9 C
03.01.2011 16:00 0,3 C -0,1 C 48 % 60 % 1017 hPa 0,0 l/m 0,0 km/h (0 Bft) - - -9,6 C 0,3 C
03.01.2011 17:00 -0,3 C -0,6 C 50 % 61 % 1016 hPa 0,0 l/m 0,0 km/h (0 Bft) - - -9,6 C -0,3 C
03.01.2011 18:00 -0,6 C -1,0 C 52 % 62 % 1016 hPa 0,0 l/m 0,0 km/h (0 Bft) - - -9,2 C -0,6 C
03.01.2011 19:00 -1,2 C -1,5 C 54 % 63 % 1016 hPa 0,0 l/m 0,0 km/h (0 Bft) - - -9,4 C -1,2 C
03.01.2011 20:00 -1,0 C -1,4 C 57 % 65 % 1016 hPa 0,0 l/m 0,0 km/h (0 Bft) - - -8,4 C -1,0 C
03.01.2011 21:00 -1,0 C -1,5 C 57 % 66 % 1016 hPa 0,0 l/m 0,0 km/h (0 Bft) - - -8,5 C -1,0 C
03.01.2011 22:00 -0,9 C -1,3 C 59 % 68 % 1016 hPa 0,0 l/m 0,0 km/h (0 Bft) - - -8,0 C -0,9 C
03.01.2011 23:00 -0,7 C -1,0 C 60 % 69 % 1016 hPa 0,0 l/m 0,0 km/h (0 Bft) - - -7,5 C -0,7 C
04.01.2011 00:00 -0,9 C -1,1 C 60 % 69 % 1015 hPa 0,0 l/m 0,0 km/h (0 Bft) - - -7,7 C -0,9 C
04.01.2011 01:00 -1,1 C -1,3 C 62 % 69 % 1015 hPa 0,0 l/m 0,0 km/h (0 Bft) - - -7,4 C -1,1 C
04.01.2011 02:00 -1,2 C -1,3 C 65 % 70 % 1015 hPa 0,0 l/m 0,0 km/h (0 Bft) - - -6,9 C -1,2 C
04.01.2011 03:00 -1,3 C -1,5 C 68 % 70 % 1014 hPa 0,0 l/m 0,0 km/h (0 Bft) - - -6,6 C -1,3 C
04.01.2011 04:00 -1,5 C -1,7 C 68 % 70 % 1014 hPa 0,0 l/m 0,0 km/h (0 Bft) - - -6,6 C -1,5 C
04.01.2011 05:00 -2,0 C -2,2 C 68 % 70 % 1013 hPa 0,0 l/m 0,0 km/h (0 Bft) - - -7,1 C -2,0 C
04.01.2011 06:00 -2,3 C -2,4 C 67 % 70 % 1013 hPa 0,0 l/m 0,0 km/h (0 Bft) - - -7,5 C -2,3 C
04.01.2011 07:00 -2,3 C -2,7 C 66 % 70 % 1013 hPa 0,0 l/m 0,0 km/h (0 Bft) - - -7,8 C -2,3 C
04.01.2011 08:00 -2,3 C -2,6 C 66 % 71 % 1013 hPa 0,0 l/m 0,0 km/h (0 Bft) - - -7,8 C -2,3 C
04.01.2011 09:00 -2,0 C -2,1 C 64 % 71 % 1013 hPa 0,0 l/m 0,0 km/h (0 Bft) - - -7,9 C -2,0 C
04.01.2011 10:00 -1,1 C -0,8 C 57 % 70 % 1013 hPa 0,0 l/m 0,0 km/h (0 Bft) - - -8,7 C -1,1 C
04.01.2011 11:00 0,8 C 2,6 C 41 % 53 % 1012 hPa 0,0 l/m 0,0 km/h (0 Bft) - - -11,0 C 0,8 C
04.01.2011 12:00 -0,1 C 0,4 C 38 % 47 % 1012 hPa 0,0 l/m 0,0 km/h (0 Bft) - - -12,6 C -0,1 C
04.01.2011 13:00 0,3 C 0,5 C 36 % 48 % 1011 hPa 0,0 l/m 0,0 km/h (0 Bft) - - -13,0 C 0,3 C
04.01.2011 14:00 0,4 C 0,6 C 34 % 46 % 1011 hPa 0,0 l/m 0,0 km/h (0 Bft) - - -13,8 C 0,4 C
04.01.2011 15:00 -0,5 C -0,6 C 38 % 49 % 1011 hPa 0,0 l/m 0,0 km/h (0 Bft) - - -13,2 C -0,5 C
04.01.2011 16:00 -1,1 C -1,2 C 45 % 52 % 1011 hPa 0,0 l/m 0,0 km/h (0 Bft) - - -11,5 C -1,1 C
Min-Datum _ 03.01.11 03.01.11 04.01.11 04.01.11 04.01.11 - 03.01.11 - 04.01.11 03.01.11
_ Min-Zeit 04:56 04:26 14:56 14:56 13:26 - 00:26 - 14:56 04:56
Minimum _ -5,8 C -6,1 C 33 % 45 % 1011 hPa - 0,0 km/h (0 Bft) - -14,2 C -5,8 C
Max-Datum _ 03.01.11 04.01.11 03.01.11 03.01.11 03.01.11 03.01.11 03.01.11 - 04.01.11 03.01.11
_ Max-Zeit 14:26 11:56 09:56 11:26 03:26 13:26 00:26 - 03:56 14:26
Maximum _ 1,4 C 2,7 C 69 % 75 % 1019 hPa 0,4 l/m 0,0 km/h
- - (0 Bft)
- -6,5 C 1,4 C
Durchschnitt _ -1,7 C -1,9 C 57 % 65 % 1015 hPa #0,4 l/m 0,0 km/h (0 Bft) - - -9,4 C -1,7 C
©2001-2010 Bettendroffer Claude